sensor_id;sensor_type;location;lat;lon;timestamp;temperature;humidity
14252;DHT22;7210;51.502;10.722;2023-05-10T00:02:04;11.30;1.00
14252;DHT22;7210;51.502;10.722;2023-05-10T00:04:31;11.30;1.00
14252;DHT22;7210;51.502;10.722;2023-05-10T00:06:58;11.30;1.00
14252;DHT22;7210;51.502;10.722;2023-05-10T00:09:38;11.30;1.00
14252;DHT22;7210;51.502;10.722;2023-05-10T00:12:06;11.30;1.00
14252;DHT22;7210;51.502;10.722;2023-05-10T00:14:50;11.30;1.00
14252;DHT22;7210;51.502;10.722;2023-05-10T00:17:19;11.20;1.00
14252;DHT22;7210;51.502;10.722;2023-05-10T00:20:14;11.10;1.00
14252;DHT22;7210;51.502;10.722;2023-05-10T00:22:41;10.90;1.00
14252;DHT22;7210;51.502;10.722;2023-05-10T00:25:09;10.70;1.00
14252;DHT22;7210;51.502;10.722;2023-05-10T00:27:38;10.60;1.00
14252;DHT22;7210;51.502;10.722;2023-05-10T00:30:06;10.50;1.00
14252;DHT22;7210;51.502;10.722;2023-05-10T00:32:36;10.50;1.00
14252;DHT22;7210;51.502;10.722;2023-05-10T00:35:20;10.40;1.00
14252;DHT22;7210;51.502;10.722;2023-05-10T00:37:48;10.40;1.00
14252;DHT22;7210;51.502;10.722;2023-05-10T00:40:15;10.30;1.00
14252;DHT22;7210;51.502;10.722;2023-05-10T00:42:50;10.30;1.00
14252;DHT22;7210;51.502;10.722;2023-05-10T00:45:20;10.20;1.00
14252;DHT22;7210;51.502;10.722;2023-05-10T00:47:49;10.20;1.00
14252;DHT22;7210;51.502;10.722;2023-05-10T00:50:18;10.10;1.00
14252;DHT22;7210;51.502;10.722;2023-05-10T00:53:02;10.10;1.00
14252;DHT22;7210;51.502;10.722;2023-05-10T00:55:30;10.10;1.00
14252;DHT22;7210;51.502;10.722;2023-05-10T00:58:08;10.00;1.00
14252;DHT22;7210;51.502;10.722;2023-05-10T01:00:36;10.00;1.00
14252;DHT22;7210;51.502;10.722;2023-05-10T01:03:06;10.00;1.00
14252;DHT22;7210;51.502;10.722;2023-05-10T01:05:33;10.10;1.00
14252;DHT22;7210;51.502;10.722;2023-05-10T01:08:08;10.00;1.00
14252;DHT22;7210;51.502;10.722;2023-05-10T01:10:35;10.00;1.00
14252;DHT22;7210;51.502;10.722;2023-05-10T01:13:03;9.90;1.00
14252;DHT22;7210;51.502;10.722;2023-05-10T01:15:31;9.90;1.00
14252;DHT22;7210;51.502;10.722;2023-05-10T01:17:58;9.80;1.00
14252;DHT22;7210;51.502;10.722;2023-05-10T01:20:40;9.80;1.00
14252;DHT22;7210;51.502;10.722;2023-05-10T01:23:45;10.00;1.00
14252;DHT22;7210;51.502;10.722;2023-05-10T01:33:27;10.10;1.00
14252;DHT22;7210;51.502;10.722;2023-05-10T01:36:05;10.00;1.00
14252;DHT22;7210;51.502;10.722;2023-05-10T01:38:44;10.00;1.00
14252;DHT22;7210;51.502;10.722;2023-05-10T01:41:20;9.80;1.00
14252;DHT22;7210;51.502;10.722;2023-05-10T01:44:00;9.70;1.00
14252;DHT22;7210;51.502;10.722;2023-05-10T01:46:37;9.60;1.00
14252;DHT22;7210;51.502;10.722;2023-05-10T01:49:34;9.60;1.00
14252;DHT22;7210;51.502;10.722;2023-05-10T01:52:10;9.60;99.90
14252;DHT22;7210;51.502;10.722;2023-05-10T01:55:02;9.60;99.90
14252;DHT22;7210;51.502;10.722;2023-05-10T01:57:34;9.70;99.90
14252;DHT22;7210;51.502;10.722;2023-05-10T02:00:09;9.70;99.90
14252;DHT22;7210;51.502;10.722;2023-05-10T02:02:45;9.80;99.90
14252;DHT22;7210;51.502;10.722;2023-05-10T02:08:57;9.90;99.90
14252;DHT22;7210;51.502;10.722;2023-05-10T02:11:26;9.80;99.90
14252;DHT22;7210;51.502;10.722;2023-05-10T02:13:55;9.80;99.90
14252;DHT22;7210;51.502;10.722;2023-05-10T02:19:44;9.80;99.90
14252;DHT22;7210;51.502;10.722;2023-05-10T02:22:16;9.80;99.90
14252;DHT22;7210;51.502;10.722;2023-05-10T02:24:50;9.90;99.90
14252;DHT22;7210;51.502;10.722;2023-05-10T02:27:19;9.90;99.90
14252;DHT22;7210;51.502;10.722;2023-05-10T02:29:48;9.80;99.90
14252;DHT22;7210;51.502;10.722;2023-05-10T02:32:17;9.80;99.90
14252;DHT22;7210;51.502;10.722;2023-05-10T02:34:46;9.80;99.90
14252;DHT22;7210;51.502;10.722;2023-05-10T02:37:19;9.90;99.90
14252;DHT22;7210;51.502;10.722;2023-05-10T02:39:49;9.90;99.90
14252;DHT22;7210;51.502;10.722;2023-05-10T02:42:22;10.10;99.90
14252;DHT22;7210;51.502;10.722;2023-05-10T02:44:55;10.10;99.90
14252;DHT22;7210;51.502;10.722;2023-05-10T02:47:26;10.10;99.90
14252;DHT22;7210;51.502;10.722;2023-05-10T02:49:54;10.10;99.90
14252;DHT22;7210;51.502;10.722;2023-05-10T02:52:24;10.10;99.90
14252;DHT22;7210;51.502;10.722;2023-05-10T02:54:59;10.10;99.90
14252;DHT22;7210;51.502;10.722;2023-05-10T02:57:32;10.20;99.90
14252;DHT22;7210;51.502;10.722;2023-05-10T03:00:01;10.30;99.90
14252;DHT22;7210;51.502;10.722;2023-05-10T03:02:29;10.40;99.90
14252;DHT22;7210;51.502;10.722;2023-05-10T03:04:57;10.30;99.90
14252;DHT22;7210;51.502;10.722;2023-05-10T03:07:30;10.30;99.90
14252;DHT22;7210;51.502;10.722;2023-05-10T03:10:00;10.30;99.90
14252;DHT22;7210;51.502;10.722;2023-05-10T03:12:37;10.40;99.90
14252;DHT22;7210;51.502;10.722;2023-05-10T03:15:25;10.40;99.90
14252;DHT22;7210;51.502;10.722;2023-05-10T03:18:06;10.50;99.90
14252;DHT22;7210;51.502;10.722;2023-05-10T03:20:46;10.50;99.90
14252;DHT22;7210;51.502;10.722;2023-05-10T03:23:21;10.50;99.90
14252;DHT22;7210;51.502;10.722;2023-05-10T03:25:55;10.50;99.90
14252;DHT22;7210;51.502;10.722;2023-05-10T03:28:25;10.50;99.90
14252;DHT22;7210;51.502;10.722;2023-05-10T03:30:54;10.50;99.90
14252;DHT22;7210;51.502;10.722;2023-05-10T03:33:24;10.70;99.90
14252;DHT22;7210;51.502;10.722;2023-05-10T03:35:52;10.70;99.90
14252;DHT22;7210;51.502;10.722;2023-05-10T03:38:24;10.70;99.90
14252;DHT22;7210;51.502;10.722;2023-05-10T03:40:51;10.70;99.90
14252;DHT22;7210;51.502;10.722;2023-05-10T03:43:20;10.60;99.90
14252;DHT22;7210;51.502;10.722;2023-05-10T03:45:47;10.60;99.90
14252;DHT22;7210;51.502;10.722;2023-05-10T03:48:14;10.60;99.90
14252;DHT22;7210;51.502;10.722;2023-05-10T03:50:42;10.70;99.90
14252;DHT22;7210;51.502;10.722;2023-05-10T03:53:09;10.70;99.90
14252;DHT22;7210;51.502;10.722;2023-05-10T03:55:36;10.70;99.90
14252;DHT22;7210;51.502;10.722;2023-05-10T03:58:03;10.80;99.90
14252;DHT22;7210;51.502;10.722;2023-05-10T04:00:33;10.80;99.90
14252;DHT22;7210;51.502;10.722;2023-05-10T04:03:01;10.80;99.90
14252;DHT22;7210;51.502;10.722;2023-05-10T04:05:28;10.90;99.90
14252;DHT22;7210;51.502;10.722;2023-05-10T04:08:00;10.90;99.90
14252;DHT22;7210;51.502;10.722;2023-05-10T04:10:29;11.00;99.90
14252;DHT22;7210;51.502;10.722;2023-05-10T04:12:56;11.00;99.90
14252;DHT22;7210;51.502;10.722;2023-05-10T04:15:23;11.10;99.90
14252;DHT22;7210;51.502;10.722;2023-05-10T04:17:56;11.20;99.90
14252;DHT22;7210;51.502;10.722;2023-05-10T04:20:23;11.40;1.00
14252;DHT22;7210;51.502;10.722;2023-05-10T04:22:50;11.40;1.00
14252;DHT22;7210;51.502;10.722;2023-05-10T04:25:18;11.50;1.00
14252;DHT22;7210;51.502;10.722;2023-05-10T04:27:45;11.60;1.00
14252;DHT22;7210;51.502;10.722;2023-05-10T04:30:12;11.60;1.00
14252;DHT22;7210;51.502;10.722;2023-05-10T04:32:42;11.60;1.00
14252;DHT22;7210;51.502;10.722;2023-05-10T04:35:11;11.70;1.00
14252;DHT22;7210;51.502;10.722;2023-05-10T04:37:40;11.70;1.00
14252;DHT22;7210;51.502;10.722;2023-05-10T04:40:08;11.80;1.00
14252;DHT22;7210;51.502;10.722;2023-05-10T04:42:36;11.90;1.00
14252;DHT22;7210;51.502;10.722;2023-05-10T04:45:04;12.00;1.00
14252;DHT22;7210;51.502;10.722;2023-05-10T04:47:32;12.10;1.00
14252;DHT22;7210;51.502;10.722;2023-05-10T04:49:59;12.10;1.00
14252;DHT22;7210;51.502;10.722;2023-05-10T04:52:28;12.20;1.00
14252;DHT22;7210;51.502;10.722;2023-05-10T04:55:00;12.20;1.00
14252;DHT22;7210;51.502;10.722;2023-05-10T04:57:27;12.20;1.00
14252;DHT22;7210;51.502;10.722;2023-05-10T04:59:54;12.20;1.00
14252;DHT22;7210;51.502;10.722;2023-05-10T05:02:22;12.20;1.00
14252;DHT22;7210;51.502;10.722;2023-05-10T05:04:49;12.20;1.00
14252;DHT22;7210;51.502;10.722;2023-05-10T05:07:16;12.40;1.00
14252;DHT22;7210;51.502;10.722;2023-05-10T05:09:45;12.40;1.00
14252;DHT22;7210;51.502;10.722;2023-05-10T05:12:12;12.50;1.00
14252;DHT22;7210;51.502;10.722;2023-05-10T05:14:39;12.60;1.00
14252;DHT22;7210;51.502;10.722;2023-05-10T05:17:07;12.60;1.00
14252;DHT22;7210;51.502;10.722;2023-05-10T05:19:35;12.60;1.00
14252;DHT22;7210;51.502;10.722;2023-05-10T05:22:03;12.60;1.00
14252;DHT22;7210;51.502;10.722;2023-05-10T05:24:36;12.70;1.00
14252;DHT22;7210;51.502;10.722;2023-05-10T05:27:07;12.70;1.00
14252;DHT22;7210;51.502;10.722;2023-05-10T05:29:34;12.80;1.00
14252;DHT22;7210;51.502;10.722;2023-05-10T05:32:03;13.00;1.00
14252;DHT22;7210;51.502;10.722;2023-05-10T05:34:31;13.00;1.00
14252;DHT22;7210;51.502;10.722;2023-05-10T05:37:00;13.10;1.00
14252;DHT22;7210;51.502;10.722;2023-05-10T05:39:28;13.10;1.00
14252;DHT22;7210;51.502;10.722;2023-05-10T05:41:55;13.20;1.00
14252;DHT22;7210;51.502;10.722;2023-05-10T05:44:24;13.20;1.00
14252;DHT22;7210;51.502;10.722;2023-05-10T05:46:52;13.20;1.00
14252;DHT22;7210;51.502;10.722;2023-05-10T05:49:20;13.20;1.00
14252;DHT22;7210;51.502;10.722;2023-05-10T05:51:47;13.30;1.00
14252;DHT22;7210;51.502;10.722;2023-05-10T05:54:17;13.30;1.00
14252;DHT22;7210;51.502;10.722;2023-05-10T05:56:44;13.30;1.00
14252;DHT22;7210;51.502;10.722;2023-05-10T05:59:11;13.30;1.00
14252;DHT22;7210;51.502;10.722;2023-05-10T06:01:40;13.30;1.00
14252;DHT22;7210;51.502;10.722;2023-05-10T06:04:07;13.20;1.00
14252;DHT22;7210;51.502;10.722;2023-05-10T06:06:34;13.20;1.00
14252;DHT22;7210;51.502;10.722;2023-05-10T06:09:02;13.20;1.00
14252;DHT22;7210;51.502;10.722;2023-05-10T06:11:29;13.20;1.00
14252;DHT22;7210;51.502;10.722;2023-05-10T06:13:57;13.20;1.00
14252;DHT22;7210;51.502;10.722;2023-05-10T06:16:24;13.30;1.00
14252;DHT22;7210;51.502;10.722;2023-05-10T06:18:53;13.30;1.00
14252;DHT22;7210;51.502;10.722;2023-05-10T06:21:20;13.30;1.00
14252;DHT22;7210;51.502;10.722;2023-05-10T06:23:48;13.40;1.00
14252;DHT22;7210;51.502;10.722;2023-05-10T06:26:15;13.50;1.00
14252;DHT22;7210;51.502;10.722;2023-05-10T06:28:42;13.50;1.00
14252;DHT22;7210;51.502;10.722;2023-05-10T06:31:09;13.40;1.00
14252;DHT22;7210;51.502;10.722;2023-05-10T06:33:37;13.40;1.00
14252;DHT22;7210;51.502;10.722;2023-05-10T06:36:06;13.40;1.00
14252;DHT22;7210;51.502;10.722;2023-05-10T06:38:34;13.40;1.00
14252;DHT22;7210;51.502;10.722;2023-05-10T06:41:01;13.30;1.00
14252;DHT22;7210;51.502;10.722;2023-05-10T06:43:28;13.30;1.00
14252;DHT22;7210;51.502;10.722;2023-05-10T06:45:55;13.30;1.00
14252;DHT22;7210;51.502;10.722;2023-05-10T06:48:23;13.10;1.00
14252;DHT22;7210;51.502;10.722;2023-05-10T06:50:50;13.00;1.00
14252;DHT22;7210;51.502;10.722;2023-05-10T06:53:18;12.90;1.00
14252;DHT22;7210;51.502;10.722;2023-05-10T06:55:46;12.80;1.00
14252;DHT22;7210;51.502;10.722;2023-05-10T06:58:13;12.70;1.00
14252;DHT22;7210;51.502;10.722;2023-05-10T07:00:40;12.60;1.00
14252;DHT22;7210;51.502;10.722;2023-05-10T07:03:09;12.70;1.00
14252;DHT22;7210;51.502;10.722;2023-05-10T07:05:36;12.70;1.00
14252;DHT22;7210;51.502;10.722;2023-05-10T07:08:03;12.70;1.00
14252;DHT22;7210;51.502;10.722;2023-05-10T07:10:32;12.80;99.90
14252;DHT22;7210;51.502;10.722;2023-05-10T07:13:00;12.80;99.90
14252;DHT22;7210;51.502;10.722;2023-05-10T07:15:27;12.90;99.90
14252;DHT22;7210;51.502;10.722;2023-05-10T07:17:54;12.80;99.90
14252;DHT22;7210;51.502;10.722;2023-05-10T07:20:21;12.80;99.90
14252;DHT22;7210;51.502;10.722;2023-05-10T07:22:48;12.80;99.90
14252;DHT22;7210;51.502;10.722;2023-05-10T07:25:15;12.90;1.40
14252;DHT22;7210;51.502;10.722;2023-05-10T07:27:44;12.90;99.90
14252;DHT22;7210;51.502;10.722;2023-05-10T07:30:14;13.00;99.90
14252;DHT22;7210;51.502;10.722;2023-05-10T07:32:41;13.00;99.90
14252;DHT22;7210;51.502;10.722;2023-05-10T07:35:09;13.10;99.90
14252;DHT22;7210;51.502;10.722;2023-05-10T07:37:36;13.20;99.90
14252;DHT22;7210;51.502;10.722;2023-05-10T07:40:04;13.20;99.90
14252;DHT22;7210;51.502;10.722;2023-05-10T07:42:32;13.30;99.90
14252;DHT22;7210;51.502;10.722;2023-05-10T07:45:00;13.40;99.90
14252;DHT22;7210;51.502;10.722;2023-05-10T07:47:27;13.50;99.90
14252;DHT22;7210;51.502;10.722;2023-05-10T07:49:54;13.60;1.00
14252;DHT22;7210;51.502;10.722;2023-05-10T07:52:21;13.70;1.00
14252;DHT22;7210;51.502;10.722;2023-05-10T07:54:49;13.80;1.00
14252;DHT22;7210;51.502;10.722;2023-05-10T07:57:16;13.80;1.00
14252;DHT22;7210;51.502;10.722;2023-05-10T07:59:44;14.00;1.00
14252;DHT22;7210;51.502;10.722;2023-05-10T08:02:13;14.00;1.00
14252;DHT22;7210;51.502;10.722;2023-05-10T08:04:41;14.00;1.00
14252;DHT22;7210;51.502;10.722;2023-05-10T08:07:09;14.10;1.00
14252;DHT22;7210;51.502;10.722;2023-05-10T08:09:38;14.10;1.00
14252;DHT22;7210;51.502;10.722;2023-05-10T08:12:06;14.30;1.00
14252;DHT22;7210;51.502;10.722;2023-05-10T08:14:33;14.30;1.00
14252;DHT22;7210;51.502;10.722;2023-05-10T08:17:02;14.30;1.00
14252;DHT22;7210;51.502;10.722;2023-05-10T08:19:31;14.40;1.00
14252;DHT22;7210;51.502;10.722;2023-05-10T08:21:58;14.50;1.00
14252;DHT22;7210;51.502;10.722;2023-05-10T08:24:25;14.50;1.00
14252;DHT22;7210;51.502;10.722;2023-05-10T08:26:52;14.40;1.00
14252;DHT22;7210;51.502;10.722;2023-05-10T08:29:19;14.40;1.00
14252;DHT22;7210;51.502;10.722;2023-05-10T08:31:46;14.40;1.00
14252;DHT22;7210;51.502;10.722;2023-05-10T08:34:13;14.50;1.00
14252;DHT22;7210;51.502;10.722;2023-05-10T08:36:42;14.40;1.00
14252;DHT22;7210;51.502;10.722;2023-05-10T08:39:10;14.20;1.00
14252;DHT22;7210;51.502;10.722;2023-05-10T08:41:39;14.10;1.00
14252;DHT22;7210;51.502;10.722;2023-05-10T08:44:08;14.10;1.00
14252;DHT22;7210;51.502;10.722;2023-05-10T08:46:37;14.10;99.90
14252;DHT22;7210;51.502;10.722;2023-05-10T08:49:11;14.20;99.90
14252;DHT22;7210;51.502;10.722;2023-05-10T08:51:51;14.30;1.00
14252;DHT22;7210;51.502;10.722;2023-05-10T08:54:22;14.40;1.00
14252;DHT22;7210;51.502;10.722;2023-05-10T08:56:49;14.40;1.00
14252;DHT22;7210;51.502;10.722;2023-05-10T08:59:17;14.50;1.00
14252;DHT22;7210;51.502;10.722;2023-05-10T09:01:50;14.40;1.00
14252;DHT22;7210;51.502;10.722;2023-05-10T09:04:19;14.30;1.00
14252;DHT22;7210;51.502;10.722;2023-05-10T09:06:49;14.10;99.90
14252;DHT22;7210;51.502;10.722;2023-05-10T09:09:17;13.90;99.90
14252;DHT22;7210;51.502;10.722;2023-05-10T09:11:44;13.80;99.90
14252;DHT22;7210;51.502;10.722;2023-05-10T09:14:12;13.70;99.90
14252;DHT22;7210;51.502;10.722;2023-05-10T09:16:42;13.70;99.90
14252;DHT22;7210;51.502;10.722;2023-05-10T09:19:10;13.80;99.90
14252;DHT22;7210;51.502;10.722;2023-05-10T09:21:37;13.80;99.90
14252;DHT22;7210;51.502;10.722;2023-05-10T09:24:07;13.80;99.90
14252;DHT22;7210;51.502;10.722;2023-05-10T09:26:35;13.80;99.90
14252;DHT22;7210;51.502;10.722;2023-05-10T09:29:12;13.90;99.90
14252;DHT22;7210;51.502;10.722;2023-05-10T09:31:47;13.90;99.90
14252;DHT22;7210;51.502;10.722;2023-05-10T09:34:17;13.90;99.90
14252;DHT22;7210;51.502;10.722;2023-05-10T09:36:54;13.90;99.90
14252;DHT22;7210;51.502;10.722;2023-05-10T09:39:32;14.00;99.90
14252;DHT22;7210;51.502;10.722;2023-05-10T09:42:03;14.10;99.90
14252;DHT22;7210;51.502;10.722;2023-05-10T09:44:32;14.10;99.90
14252;DHT22;7210;51.502;10.722;2023-05-10T09:47:00;14.20;99.90
14252;DHT22;7210;51.502;10.722;2023-05-10T09:49:27;14.20;99.90
14252;DHT22;7210;51.502;10.722;2023-05-10T09:52:02;14.20;1.00
14252;DHT22;7210;51.502;10.722;2023-05-10T09:54:32;14.30;99.90
14252;DHT22;7210;51.502;10.722;2023-05-10T09:57:00;14.50;99.90
14252;DHT22;7210;51.502;10.722;2023-05-10T09:59:28;14.60;1.00
14252;DHT22;7210;51.502;10.722;2023-05-10T10:01:57;14.70;1.00
14252;DHT22;7210;51.502;10.722;2023-05-10T10:04:26;14.80;1.00
14252;DHT22;7210;51.502;10.722;2023-05-10T10:07:01;15.00;1.00
14252;DHT22;7210;51.502;10.722;2023-05-10T10:09:32;15.20;1.00
14252;DHT22;7210;51.502;10.722;2023-05-10T10:12:00;15.40;1.00
14252;DHT22;7210;51.502;10.722;2023-05-10T10:14:28;15.50;1.00
14252;DHT22;7210;51.502;10.722;2023-05-10T10:17:00;15.60;1.00
14252;DHT22;7210;51.502;10.722;2023-05-10T10:19:28;15.60;1.00
14252;DHT22;7210;51.502;10.722;2023-05-10T10:21:57;15.70;1.00
14252;DHT22;7210;51.502;10.722;2023-05-10T10:24:24;15.90;1.00
14252;DHT22;7210;51.502;10.722;2023-05-10T10:26:55;16.00;1.00
14252;DHT22;7210;51.502;10.722;2023-05-10T10:29:38;16.20;1.00
14252;DHT22;7210;51.502;10.722;2023-05-10T10:32:21;16.30;1.00
14252;DHT22;7210;51.502;10.722;2023-05-10T10:34:55;16.40;1.00
14252;DHT22;7210;51.502;10.722;2023-05-10T10:37:23;16.50;1.00
14252;DHT22;7210;51.502;10.722;2023-05-10T10:40:23;16.80;1.00
14252;DHT22;7210;51.502;10.722;2023-05-10T10:42:56;17.00;1.00
14252;DHT22;7210;51.502;10.722;2023-05-10T10:45:24;17.10;1.00
14252;DHT22;7210;51.502;10.722;2023-05-10T10:48:20;17.20;1.00
14252;DHT22;7210;51.502;10.722;2023-05-10T10:50:56;17.30;1.00
14252;DHT22;7210;51.502;10.722;2023-05-10T10:53:26;17.40;1.00
14252;DHT22;7210;51.502;10.722;2023-05-10T10:56:05;17.50;1.00
14252;DHT22;7210;51.502;10.722;2023-05-10T10:58:37;17.70;1.00
14252;DHT22;7210;51.502;10.722;2023-05-10T11:01:14;17.70;1.00
14252;DHT22;7210;51.502;10.722;2023-05-10T11:06:46;17.80;1.00
14252;DHT22;7210;51.502;10.722;2023-05-10T11:09:14;17.80;1.00
14252;DHT22;7210;51.502;10.722;2023-05-10T11:11:59;17.90;1.00
14252;DHT22;7210;51.502;10.722;2023-05-10T11:14:31;18.00;1.00
14252;DHT22;7210;51.502;10.722;2023-05-10T11:16:58;18.20;1.00
14252;DHT22;7210;51.502;10.722;2023-05-10T11:19:28;18.10;1.00
14252;DHT22;7210;51.502;10.722;2023-05-10T11:22:13;17.80;1.00
14252;DHT22;7210;51.502;10.722;2023-05-10T11:24:56;17.60;1.00
14252;DHT22;7210;51.502;10.722;2023-05-10T11:27:30;17.60;1.00
14252;DHT22;7210;51.502;10.722;2023-05-10T11:30:00;17.70;1.00
14252;DHT22;7210;51.502;10.722;2023-05-10T11:32:27;18.00;1.00
14252;DHT22;7210;51.502;10.722;2023-05-10T11:34:54;18.30;1.00
14252;DHT22;7210;51.502;10.722;2023-05-10T11:37:21;18.10;1.00
14252;DHT22;7210;51.502;10.722;2023-05-10T11:39:48;18.20;1.00
14252;DHT22;7210;51.502;10.722;2023-05-10T11:42:16;18.30;1.00
14252;DHT22;7210;51.502;10.722;2023-05-10T11:44:45;18.60;1.00
14252;DHT22;7210;51.502;10.722;2023-05-10T11:47:15;18.90;1.00
14252;DHT22;7210;51.502;10.722;2023-05-10T11:49:43;19.00;1.00
14252;DHT22;7210;51.502;10.722;2023-05-10T11:52:11;18.90;1.00
14252;DHT22;7210;51.502;10.722;2023-05-10T11:54:45;18.60;1.00
14252;DHT22;7210;51.502;10.722;2023-05-10T11:57:13;18.50;1.00
14252;DHT22;7210;51.502;10.722;2023-05-10T11:59:40;18.20;1.00
14252;DHT22;7210;51.502;10.722;2023-05-10T12:02:07;18.20;1.00
14252;DHT22;7210;51.502;10.722;2023-05-10T12:04:36;18.10;1.00
14252;DHT22;7210;51.502;10.722;2023-05-10T12:07:03;18.10;1.00
14252;DHT22;7210;51.502;10.722;2023-05-10T12:09:31;18.10;1.00
14252;DHT22;7210;51.502;10.722;2023-05-10T12:11:58;18.20;1.00
14252;DHT22;7210;51.502;10.722;2023-05-10T12:14:26;18.50;1.00
14252;DHT22;7210;51.502;10.722;2023-05-10T12:16:53;18.80;1.00
14252;DHT22;7210;51.502;10.722;2023-05-10T12:19:23;19.10;1.00
14252;DHT22;7210;51.502;10.722;2023-05-10T12:21:52;19.20;1.00
14252;DHT22;7210;51.502;10.722;2023-05-10T12:24:19;19.30;1.00
14252;DHT22;7210;51.502;10.722;2023-05-10T12:26:47;19.00;1.00
14252;DHT22;7210;51.502;10.722;2023-05-10T12:29:15;19.10;1.00
14252;DHT22;7210;51.502;10.722;2023-05-10T12:31:51;19.30;1.00
14252;DHT22;7210;51.502;10.722;2023-05-10T12:34:24;19.50;1.00
14252;DHT22;7210;51.502;10.722;2023-05-10T12:36:58;19.70;1.00
14252;DHT22;7210;51.502;10.722;2023-05-10T12:39:26;19.80;1.00
14252;DHT22;7210;51.502;10.722;2023-05-10T12:42:05;19.90;1.00
14252;DHT22;7210;51.502;10.722;2023-05-10T12:44:32;20.20;1.00
14252;DHT22;7210;51.502;10.722;2023-05-10T12:47:00;20.30;1.00
14252;DHT22;7210;51.502;10.722;2023-05-10T12:49:28;20.60;1.00
14252;DHT22;7210;51.502;10.722;2023-05-10T12:51:55;20.80;1.00
14252;DHT22;7210;51.502;10.722;2023-05-10T12:54:26;20.80;1.00
14252;DHT22;7210;51.502;10.722;2023-05-10T12:56:53;20.50;1.00
14252;DHT22;7210;51.502;10.722;2023-05-10T12:59:20;20.30;1.00
14252;DHT22;7210;51.502;10.722;2023-05-10T13:01:48;20.40;1.00
14252;DHT22;7210;51.502;10.722;2023-05-10T13:04:15;20.80;1.00
14252;DHT22;7210;51.502;10.722;2023-05-10T13:06:42;21.00;1.00
14252;DHT22;7210;51.502;10.722;2023-05-10T13:09:10;20.90;1.00
14252;DHT22;7210;51.502;10.722;2023-05-10T13:11:38;20.90;1.00
14252;DHT22;7210;51.502;10.722;2023-05-10T13:14:05;20.80;1.00
14252;DHT22;7210;51.502;10.722;2023-05-10T13:16:32;20.90;1.00
14252;DHT22;7210;51.502;10.722;2023-05-10T13:19:00;21.00;1.00
14252;DHT22;7210;51.502;10.722;2023-05-10T13:21:27;20.90;1.00
14252;DHT22;7210;51.502;10.722;2023-05-10T13:23:55;21.20;1.00
14252;DHT22;7210;51.502;10.722;2023-05-10T13:26:22;21.10;1.00
14252;DHT22;7210;51.502;10.722;2023-05-10T13:28:50;21.20;1.00
14252;DHT22;7210;51.502;10.722;2023-05-10T13:31:18;21.20;1.00
14252;DHT22;7210;51.502;10.722;2023-05-10T13:33:46;21.00;1.00
14252;DHT22;7210;51.502;10.722;2023-05-10T13:36:13;20.90;1.00
14252;DHT22;7210;51.502;10.722;2023-05-10T13:38:42;20.80;1.00
14252;DHT22;7210;51.502;10.722;2023-05-10T13:41:12;20.70;1.00
14252;DHT22;7210;51.502;10.722;2023-05-10T13:43:39;20.50;1.00
14252;DHT22;7210;51.502;10.722;2023-05-10T13:46:08;20.50;1.00
14252;DHT22;7210;51.502;10.722;2023-05-10T13:48:35;20.30;1.00
14252;DHT22;7210;51.502;10.722;2023-05-10T13:51:03;20.20;1.00
14252;DHT22;7210;51.502;10.722;2023-05-10T13:53:30;20.10;1.00
14252;DHT22;7210;51.502;10.722;2023-05-10T13:55:57;19.90;1.00
14252;DHT22;7210;51.502;10.722;2023-05-10T13:58:24;19.80;1.00
14252;DHT22;7210;51.502;10.722;2023-05-10T14:00:52;19.80;1.00
14252;DHT22;7210;51.502;10.722;2023-05-10T14:03:20;19.80;1.00
14252;DHT22;7210;51.502;10.722;2023-05-10T14:05:47;19.70;1.00
14252;DHT22;7210;51.502;10.722;2023-05-10T14:08:14;19.70;1.00
14252;DHT22;7210;51.502;10.722;2023-05-10T14:10:42;20.00;1.00
14252;DHT22;7210;51.502;10.722;2023-05-10T14:13:12;20.20;1.00
14252;DHT22;7210;51.502;10.722;2023-05-10T14:15:39;20.20;1.00
14252;DHT22;7210;51.502;10.722;2023-05-10T14:18:06;20.20;1.00
14252;DHT22;7210;51.502;10.722;2023-05-10T14:20:35;20.20;1.00
14252;DHT22;7210;51.502;10.722;2023-05-10T14:23:02;20.40;1.00
14252;DHT22;7210;51.502;10.722;2023-05-10T14:25:29;20.60;1.00
14252;DHT22;7210;51.502;10.722;2023-05-10T14:27:56;20.70;1.00
14252;DHT22;7210;51.502;10.722;2023-05-10T14:30:24;20.80;1.00
14252;DHT22;7210;51.502;10.722;2023-05-10T14:32:51;20.70;1.00
14252;DHT22;7210;51.502;10.722;2023-05-10T14:35:19;20.80;1.00
14252;DHT22;7210;51.502;10.722;2023-05-10T14:37:48;20.80;1.00
14252;DHT22;7210;51.502;10.722;2023-05-10T14:40:15;21.00;1.00
14252;DHT22;7210;51.502;10.722;2023-05-10T14:42:43;21.00;1.00
14252;DHT22;7210;51.502;10.722;2023-05-10T14:45:10;21.10;1.00
14252;DHT22;7210;51.502;10.722;2023-05-10T14:47:37;21.40;1.00
14252;DHT22;7210;51.502;10.722;2023-05-10T14:50:06;21.50;1.00
14252;DHT22;7210;51.502;10.722;2023-05-10T14:52:33;21.40;1.00
14252;DHT22;7210;51.502;10.722;2023-05-10T14:55:02;21.10;1.00
14252;DHT22;7210;51.502;10.722;2023-05-10T14:57:30;21.00;1.00
14252;DHT22;7210;51.502;10.722;2023-05-10T14:59:57;21.10;1.00
14252;DHT22;7210;51.502;10.722;2023-05-10T15:02:25;21.00;1.00
14252;DHT22;7210;51.502;10.722;2023-05-10T15:04:52;20.90;1.00
14252;DHT22;7210;51.502;10.722;2023-05-10T15:07:24;20.70;1.00
14252;DHT22;7210;51.502;10.722;2023-05-10T15:09:51;20.80;1.00
14252;DHT22;7210;51.502;10.722;2023-05-10T15:12:21;20.90;1.00
14252;DHT22;7210;51.502;10.722;2023-05-10T15:14:48;20.90;1.00
14252;DHT22;7210;51.502;10.722;2023-05-10T15:17:15;20.80;1.00
14252;DHT22;7210;51.502;10.722;2023-05-10T15:19:43;20.60;1.00
14252;DHT22;7210;51.502;10.722;2023-05-10T15:22:10;20.60;1.00
14252;DHT22;7210;51.502;10.722;2023-05-10T15:24:42;20.70;1.00
14252;DHT22;7210;51.502;10.722;2023-05-10T15:27:09;20.70;1.00
14252;DHT22;7210;51.502;10.722;2023-05-10T15:29:38;20.60;1.00
14252;DHT22;7210;51.502;10.722;2023-05-10T15:32:06;20.50;1.00
14252;DHT22;7210;51.502;10.722;2023-05-10T15:34:33;20.60;1.00
14252;DHT22;7210;51.502;10.722;2023-05-10T15:37:01;20.70;1.00
14252;DHT22;7210;51.502;10.722;2023-05-10T15:39:28;20.50;1.00
14252;DHT22;7210;51.502;10.722;2023-05-10T15:41:55;20.20;1.00
14252;DHT22;7210;51.502;10.722;2023-05-10T15:44:22;20.00;1.00
14252;DHT22;7210;51.502;10.722;2023-05-10T15:46:51;19.90;1.00
14252;DHT22;7210;51.502;10.722;2023-05-10T15:49:18;19.80;1.00
14252;DHT22;7210;51.502;10.722;2023-05-10T15:51:45;19.80;1.00
14252;DHT22;7210;51.502;10.722;2023-05-10T15:54:12;19.90;1.00
14252;DHT22;7210;51.502;10.722;2023-05-10T15:56:39;20.00;1.00
14252;DHT22;7210;51.502;10.722;2023-05-10T15:59:07;19.90;1.00
14252;DHT22;7210;51.502;10.722;2023-05-10T16:01:35;20.00;1.00
14252;DHT22;7210;51.502;10.722;2023-05-10T16:04:04;20.10;1.00
14252;DHT22;7210;51.502;10.722;2023-05-10T16:06:31;20.10;1.00
14252;DHT22;7210;51.502;10.722;2023-05-10T16:08:58;20.10;1.00
14252;DHT22;7210;51.502;10.722;2023-05-10T16:11:26;20.10;1.00
14252;DHT22;7210;51.502;10.722;2023-05-10T16:13:54;20.30;1.00
14252;DHT22;7210;51.502;10.722;2023-05-10T16:16:21;20.30;1.00